Time;durP1;ratioP1;P1;durP2;ratioP2;P2;SDS_P1;SDS_P2;PMS_P1;PMS_P2;Temp;Humidity;BMP_temperature;BMP_pressure;BME280_temperature;BME280_humidity;BME280_pressure;Samples;Min_cycle;Max_cycle;Signal;HPM_P1;HPM_P2
2022/11/14 00:01:55;0.00;0.00;0.62;0.00;0.00;0.62;9.47;8.47;;;24.90;25.00;;;;;;2267932;61;20362;-65
2022/11/14 00:04:58;0.00;0.00;0.62;0.00;0.00;0.62;10.60;9.60;;;24.80;24.90;;;;;;2267555;61;20386;-67
2022/11/14 00:08:02;0.00;0.00;0.62;0.00;0.00;0.62;10.93;9.83;;;24.80;24.90;;;;;;2268363;61;20355;-67
2022/11/14 00:11:08;0.00;0.00;0.62;0.00;0.00;0.62;13.13;10.07;;;24.80;24.90;;;;;;2267672;61;20359;-67
2022/11/14 00:14:12;0.00;0.00;0.62;0.00;0.00;0.62;10.77;9.63;;;24.80;24.80;;;;;;2267604;61;20860;-67
2022/11/14 00:17:15;0.00;0.00;0.62;0.00;0.00;0.62;14.00;11.10;;;24.70;24.70;;;;;;2268102;61;20378;-69
2022/11/14 00:20:19;0.00;0.00;0.62;0.00;0.00;0.62;14.27;12.60;;;24.70;24.70;;;;;;2267070;61;20385;-68
2022/11/14 00:23:22;0.00;0.00;0.62;0.00;0.00;0.62;15.40;13.30;;;24.60;24.60;;;;;;2268006;61;20416;-66
2022/11/14 00:26:27;0.00;0.00;0.62;0.00;0.00;0.62;18.37;13.50;;;24.60;24.60;;;;;;2267760;61;20837;-66
2022/11/14 00:29:31;0.00;0.00;0.62;0.00;0.00;0.62;14.00;12.10;;;24.50;24.40;;;;;;2267678;61;20363;-66
2022/11/14 00:32:34;0.00;0.00;0.62;0.00;0.00;0.62;16.70;13.27;;;24.50;24.50;;;;;;2267917;61;20922;-67
2022/11/14 00:35:38;0.00;0.00;0.62;0.00;0.00;0.62;12.87;11.00;;;24.50;24.50;;;;;;2267514;61;20369;-65
2022/11/14 00:38:42;0.00;0.00;0.62;0.00;0.00;0.62;15.23;12.17;;;24.40;24.50;;;;;;2267820;61;20887;-65
2022/11/14 00:41:47;0.00;0.00;0.62;0.00;0.00;0.62;13.80;12.40;;;24.30;24.50;;;;;;2267225;61;20412;-64
2022/11/14 00:44:50;0.00;0.00;0.62;0.00;0.00;0.62;14.00;12.17;;;24.30;24.50;;;;;;2267982;61;20367;-66
2022/11/14 00:47:54;0.00;0.00;0.62;0.00;0.00;0.62;12.20;10.87;;;24.30;24.50;;;;;;2267641;61;20362;-66
2022/11/14 00:50:57;0.00;0.00;0.62;0.00;0.00;0.62;13.70;12.17;;;24.30;24.60;;;;;;2267449;61;20767;-65
2022/11/14 00:54:01;0.00;0.00;0.62;0.00;0.00;0.62;16.57;13.53;;;24.20;24.40;;;;;;2268007;61;20452;-65
2022/11/14 00:57:06;0.00;0.00;0.62;0.00;0.00;0.62;15.37;13.13;;;24.20;24.30;;;;;;2267154;61;20402;-65
2022/11/14 01:00:13;0.00;0.00;0.62;0.00;0.00;0.62;14.70;13.20;;;24.10;24.30;;;;;;2267885;61;20442;-65
2022/11/14 01:03:17;0.00;0.00;0.62;0.00;0.00;0.62;16.53;14.70;;;24.10;24.30;;;;;;2267474;61;20391;-66
2022/11/14 01:06:21;0.00;0.00;0.62;0.00;0.00;0.62;13.60;12.20;;;24.00;24.30;;;;;;2267698;61;20418;-65
2022/11/14 01:09:24;0.00;0.00;0.62;0.00;0.00;0.62;13.90;12.40;;;24.00;24.40;;;;;;2267645;61;20475;-67
2022/11/14 01:12:29;0.00;0.00;0.62;0.00;0.00;0.62;13.33;11.93;;;24.00;24.40;;;;;;2267386;61;20354;-64
2022/11/14 01:15:33;0.00;0.00;0.62;0.00;0.00;0.62;14.23;12.20;;;23.90;24.40;;;;;;2267901;61;20359;-68
2022/11/14 01:18:38;0.00;0.00;0.62;0.00;0.00;0.62;14.47;12.97;;;23.90;24.50;;;;;;2267467;61;20363;-64
2022/11/14 01:21:42;0.00;0.00;0.62;0.00;0.00;0.62;13.40;11.47;;;23.90;24.50;;;;;;2267978;61;20470;-65
2022/11/14 01:24:45;0.00;0.00;0.62;0.00;0.00;0.62;14.60;12.50;;;23.80;24.50;;;;;;2267237;61;20416;-63
2022/11/14 01:27:50;0.00;0.00;0.62;0.00;0.00;0.62;15.03;12.50;;;23.80;24.50;;;;;;2267450;61;20358;-66
2022/11/14 01:30:54;0.00;0.00;0.62;0.00;0.00;0.62;17.60;14.00;;;23.80;24.50;;;;;;2267615;61;20754;-67
2022/11/14 01:33:57;0.00;0.00;0.62;0.00;0.00;0.62;13.87;11.93;;;23.80;24.40;;;;;;2267235;61;20386;-68
2022/11/14 01:37:00;0.00;0.00;0.62;0.00;0.00;0.62;13.53;11.30;;;23.70;24.40;;;;;;2267691;61;20389;-67
2022/11/14 01:40:05;0.00;0.00;0.62;0.00;0.00;0.62;13.23;11.67;;;23.70;24.40;;;;;;2267569;61;20351;-67
2022/11/14 01:43:28;0.00;0.00;0.62;0.00;0.00;0.62;12.97;10.87;;;23.70;24.50;;;;;;2267306;61;20483;-64
2022/11/14 01:46:35;0.00;0.00;0.62;0.00;0.00;0.62;12.27;10.63;;;23.70;24.50;;;;;;2267596;61;20386;-65
2022/11/14 01:49:44;0.00;0.00;0.62;0.00;0.00;0.62;12.40;11.00;;;23.70;24.50;;;;;;2267262;61;20404;-66
2022/11/14 01:52:47;0.00;0.00;0.62;0.00;0.00;0.62;13.77;12.37;;;23.60;24.50;;;;;;2267764;61;20411;-64
2022/11/14 01:55:53;0.00;0.00;0.62;0.00;0.00;0.62;12.70;11.40;;;23.60;24.50;;;;;;2267254;61;20355;-67
2022/11/14 01:59:05;0.00;0.00;0.62;0.00;0.00;0.62;13.60;11.77;;;23.60;24.50;;;;;;2267864;61;20355;-66
2022/11/14 02:02:14;0.00;0.00;0.62;0.00;0.00;0.62;12.30;10.70;;;23.60;24.60;;;;;;2267746;61;20496;-67
2022/11/14 02:05:18;0.00;0.00;0.62;0.00;0.00;0.62;11.07;10.00;;;23.60;24.60;;;;;;2267317;61;20398;-68
2022/11/14 02:08:23;0.00;0.00;0.62;0.00;0.00;0.62;14.17;11.17;;;23.50;24.50;;;;;;2267977;61;20804;-66
2022/11/14 02:11:31;0.00;0.00;0.62;0.00;0.00;0.62;13.77;11.50;;;23.60;24.60;;;;;;2267073;61;20476;-65
2022/11/14 02:14:37;0.00;0.00;0.62;0.00;0.00;0.62;10.70;9.10;;;23.50;24.60;;;;;;2267518;61;20505;-66
2022/11/14 02:17:42;0.00;0.00;0.62;0.00;0.00;0.62;10.23;9.13;;;23.50;24.60;;;;;;2265620;61;20404;-64
2022/11/14 02:20:48;0.00;0.00;0.62;0.00;0.00;0.62;10.97;9.80;;;23.50;24.60;;;;;;2267549;61;20436;-67
2022/11/14 02:23:51;0.00;0.00;0.62;0.00;0.00;0.62;10.70;9.60;;;23.50;24.60;;;;;;2268181;61;20379;-65
2022/11/14 02:26:55;0.00;0.00;0.62;0.00;0.00;0.62;10.20;9.20;;;23.50;24.60;;;;;;2267749;61;20398;-65
2022/11/14 02:30:04;0.00;0.00;0.62;0.00;0.00;0.62;12.17;10.70;;;23.50;24.60;;;;;;2268346;61;20404;-65
2022/11/14 02:33:07;0.00;0.00;0.62;0.00;0.00;0.62;10.40;9.30;;;23.50;24.60;;;;;;2267383;61;20836;-66
2022/11/14 02:36:12;0.00;0.00;0.62;0.00;0.00;0.62;9.93;8.10;;;23.50;24.60;;;;;;2268338;61;20362;-65
2022/11/14 02:39:16;0.00;0.00;0.62;0.00;0.00;0.62;11.00;9.20;;;23.50;24.60;;;;;;2268054;61;20874;-65
2022/11/14 02:42:19;0.00;0.00;0.62;0.00;0.00;0.62;10.57;8.97;;;23.40;24.50;;;;;;2267688;61;20875;-66
2022/11/14 02:45:23;0.00;0.00;0.62;0.00;0.00;0.62;11.27;10.00;;;23.40;24.50;;;;;;2267951;61;20379;-65
2022/11/14 02:48:27;0.00;0.00;0.62;0.00;0.00;0.62;12.50;10.93;;;23.40;24.50;;;;;;2267640;61;20875;-65
2022/11/14 02:51:31;0.00;0.00;0.62;0.00;0.00;0.62;11.93;10.20;;;23.40;24.50;;;;;;2268226;61;20429;-69
2022/11/14 02:54:35;0.00;0.00;0.62;0.00;0.00;0.62;10.63;9.53;;;23.40;24.50;;;;;;2268190;61;20397;-66
2022/11/14 02:57:39;0.00;0.00;0.62;0.00;0.00;0.62;12.93;11.63;;;23.40;24.50;;;;;;2268400;61;20597;-68
2022/11/14 03:00:42;0.00;0.00;0.62;0.00;0.00;0.62;11.17;9.60;;;23.30;24.40;;;;;;2268188;61;20359;-67
2022/11/14 03:03:46;0.00;0.00;0.62;0.00;0.00;0.62;10.10;9.10;;;23.30;24.40;;;;;;2267834;61;20774;-64
2022/11/14 03:06:51;0.00;0.00;0.62;0.00;0.00;0.62;10.93;9.00;;;23.30;24.50;;;;;;2268313;61;20406;-65
2022/11/14 03:09:54;0.00;0.00;0.62;0.00;0.00;0.62;10.73;9.20;;;23.30;24.50;;;;;;2267757;61;20355;-65
2022/11/14 03:12:58;0.00;0.00;0.62;0.00;0.00;0.62;9.40;8.43;;;23.30;24.50;;;;;;2268323;61;20468;-67
2022/11/14 03:16:05;0.00;0.00;0.62;0.00;0.00;0.62;10.20;9.10;;;23.20;24.40;;;;;;2267933;61;20437;-67
2022/11/14 03:19:09;0.00;0.00;0.62;0.00;0.00;0.62;10.33;8.70;;;23.20;24.40;;;;;;2267601;61;20397;-65
2022/11/14 03:22:14;0.00;0.00;0.62;0.00;0.00;0.62;11.50;9.30;;;23.20;24.40;;;;;;2267895;61;20366;-64
2022/11/14 03:25:17;0.00;0.00;0.62;0.00;0.00;0.62;11.07;9.97;;;23.20;24.50;;;;;;2267073;61;20480;-63
2022/11/14 03:28:21;0.00;0.00;0.62;0.00;0.00;0.62;10.40;9.30;;;23.20;24.50;;;;;;2268026;61;20883;-66
2022/11/14 03:31:24;0.00;0.00;0.62;0.00;0.00;0.62;10.00;8.80;;;23.10;24.40;;;;;;2267641;61;20489;-66
2022/11/14 03:34:28;0.00;0.00;0.62;0.00;0.00;0.62;10.57;9.20;;;23.20;24.50;;;;;;2268271;61;20911;-67
2022/11/14 03:37:33;0.00;0.00;0.62;0.00;0.00;0.62;11.23;9.20;;;23.10;24.50;;;;;;2267999;61;20409;-64
2022/11/14 03:40:39;0.00;0.00;0.62;0.00;0.00;0.62;9.57;8.57;;;23.10;24.50;;;;;;2267568;61;20405;-66
2022/11/14 03:43:42;0.00;0.00;0.62;0.00;0.00;0.62;9.67;8.70;;;23.10;24.50;;;;;;2268084;61;20378;-66
2022/11/14 03:46:46;0.00;0.00;0.62;0.00;0.00;0.62;10.60;9.60;;;23.10;24.50;;;;;;2267557;61;20419;-67
2022/11/14 03:49:52;0.00;0.00;0.62;0.00;0.00;0.62;9.40;8.43;;;23.10;24.50;;;;;;2268483;61;20390;-66
2022/11/14 03:52:57;0.00;0.00;0.62;0.00;0.00;0.62;10.57;9.17;;;23.10;24.50;;;;;;2267891;61;20382;-65
2022/11/14 03:56:01;0.00;0.00;0.62;0.00;0.00;0.62;10.60;9.50;;;23.10;24.50;;;;;;2267686;61;20399;-68
2022/11/14 03:59:04;0.00;0.00;0.62;0.00;0.00;0.62;10.73;9.13;;;23.10;24.50;;;;;;2267986;61;20457;-67
2022/11/14 04:02:08;0.00;0.00;0.62;0.00;0.00;0.62;11.90;9.97;;;23.10;24.50;;;;;;2267175;61;20379;-63
2022/11/14 04:05:11;0.00;0.00;0.62;0.00;0.00;0.62;10.33;9.30;;;23.10;24.50;;;;;;2267632;61;20409;-63
2022/11/14 04:08:18;0.00;0.00;0.62;0.00;0.00;0.62;10.73;9.60;;;23.00;24.40;;;;;;2267949;61;20493;-68
2022/11/14 04:11:22;0.00;0.00;0.62;0.00;0.00;0.62;11.07;8.77;;;23.00;24.40;;;;;;2267825;61;20367;-63
2022/11/14 04:14:25;0.00;0.00;0.62;0.00;0.00;0.62;10.40;9.30;;;23.00;24.50;;;;;;2267994;61;20490;-66
2022/11/14 04:17:29;0.00;0.00;0.62;0.00;0.00;0.62;9.57;8.57;;;23.00;24.40;;;;;;2267507;61;20409;-67
2022/11/14 04:20:33;0.00;0.00;0.62;0.00;0.00;0.62;9.33;8.17;;;22.90;24.50;;;;;;2267669;61;20696;-66
2022/11/14 04:23:38;0.00;0.00;0.62;0.00;0.00;0.62;10.70;9.60;;;22.90;24.40;;;;;;2267720;61;20911;-64
2022/11/14 04:26:41;0.00;0.00;0.62;0.00;0.00;0.62;10.13;8.33;;;22.90;24.40;;;;;;2268053;61;20844;-67
2022/11/14 04:29:45;0.00;0.00;0.62;0.00;0.00;0.62;11.20;8.60;;;22.90;24.40;;;;;;2267581;61;20411;-65
2022/11/14 04:32:49;0.00;0.00;0.62;0.00;0.00;0.62;11.50;9.80;;;22.90;24.50;;;;;;2267424;61;20414;-66
2022/11/14 04:35:52;0.00;0.00;0.62;0.00;0.00;0.62;12.83;10.70;;;22.90;24.50;;;;;;2268137;61;20359;-68
2022/11/14 04:38:57;0.00;0.00;0.62;0.00;0.00;0.62;11.67;9.83;;;22.90;24.50;;;;;;2267239;61;20354;-67
2022/11/14 04:42:01;0.00;0.00;0.62;0.00;0.00;0.62;11.77;8.70;;;22.80;24.30;;;;;;2268127;61;20906;-69
2022/11/14 04:45:06;0.00;0.00;0.62;0.00;0.00;0.62;9.93;8.77;;;22.80;24.40;;;;;;2267645;61;20390;-67
2022/11/14 04:48:11;0.00;0.00;0.62;0.00;0.00;0.62;10.40;9.40;;;22.80;24.40;;;;;;2267703;61;20367;-69
2022/11/14 04:51:15;0.00;0.00;0.62;0.00;0.00;0.62;11.43;10.00;;;22.70;24.30;;;;;;2267690;61;20363;-71
2022/11/14 04:54:19;0.00;0.00;0.62;0.00;0.00;0.62;11.63;10.43;;;22.70;24.50;;;;;;2267302;61;20959;-67
2022/11/14 04:57:23;0.00;0.00;0.62;0.00;0.00;0.62;10.87;9.57;;;22.60;24.30;;;;;;2267798;61;20918;-66
2022/11/14 05:00:27;0.00;0.00;0.62;0.00;0.00;0.62;9.30;8.30;;;22.60;24.30;;;;;;2267588;61;20863;-67
2022/11/14 05:03:30;0.00;0.00;0.62;0.00;0.00;0.62;10.27;9.13;;;22.60;24.30;;;;;;2267917;61;20374;-66
2022/11/14 05:06:34;0.00;0.00;0.62;0.00;0.00;0.62;12.10;10.90;;;22.60;24.40;;;;;;2267905;61;20395;-70
2022/11/14 05:09:39;0.00;0.00;0.62;0.00;0.00;0.62;10.53;9.43;;;22.60;24.40;;;;;;2267827;61;20429;-65
2022/11/14 05:12:42;0.00;0.00;0.62;0.00;0.00;0.62;12.70;10.37;;;22.60;24.50;;;;;;2268412;61;20386;-65
2022/11/14 05:15:46;0.00;0.00;0.62;0.00;0.00;0.62;10.70;9.60;;;22.60;24.50;;;;;;2267308;61;20355;-65
2022/11/14 05:18:52;0.00;0.00;0.62;0.00;0.00;0.62;9.53;8.53;;;22.50;24.40;;;;;;2268292;61;20366;-66
2022/11/14 05:21:56;0.00;0.00;0.62;0.00;0.00;0.62;10.03;8.43;;;22.50;24.40;;;;;;2267283;61;20448;-69
2022/11/14 05:25:01;0.00;0.00;0.62;0.00;0.00;0.62;11.17;9.47;;;22.50;24.40;;;;;;2267452;61;20445;-66
2022/11/14 05:28:04;0.00;0.00;0.62;0.00;0.00;0.62;10.50;9.40;;;22.50;24.40;;;;;;2267787;61;20359;-66
2022/11/14 05:31:12;0.00;0.00;0.62;0.00;0.00;0.62;11.93;10.17;;;22.50;24.40;;;;;;2266833;61;20541;-65
2022/11/14 05:34:16;0.00;0.00;0.62;0.00;0.00;0.62;11.73;9.80;;;22.50;24.50;;;;;;2267705;61;20864;-68
2022/11/14 05:37:19;0.00;0.00;0.62;0.00;0.00;0.62;10.47;9.20;;;22.50;24.50;;;;;;2267525;61;20424;-68
2022/11/14 05:40:24;0.00;0.00;0.62;0.00;0.00;0.62;11.73;9.43;;;22.50;24.50;;;;;;2267709;61;20355;-68
2022/11/14 05:43:28;0.00;0.00;0.62;0.00;0.00;0.62;9.87;8.83;;;22.50;24.50;;;;;;2267707;61;20383;-68
2022/11/14 05:46:32;0.00;0.00;0.62;0.00;0.00;0.62;11.80;9.70;;;22.40;24.50;;;;;;2267250;61;20529;-68
2022/11/14 05:49:36;0.00;0.00;0.62;0.00;0.00;0.62;10.30;8.43;;;22.40;24.50;;;;;;2267604;61;20362;-69
2022/11/14 05:52:39;0.00;0.00;0.62;0.00;0.00;0.62;11.97;9.60;;;22.40;24.50;;;;;;2267080;61;20379;-71
2022/11/14 05:55:44;0.00;0.00;0.62;0.00;0.00;0.62;10.63;9.43;;;22.40;24.50;;;;;;2268439;61;20923;-66
2022/11/14 05:58:48;0.00;0.00;0.62;0.00;0.00;0.62;13.63;10.37;;;22.40;24.50;;;;;;2268243;61;20488;-67
2022/11/14 06:01:51;0.00;0.00;0.62;0.00;0.00;0.62;13.17;10.77;;;22.40;24.60;;;;;;2268082;61;20462;-68
2022/11/14 06:04:55;0.00;0.00;0.62;0.00;0.00;0.62;11.25;9.50;;;22.40;24.60;;;;;;2268256;61;20354;-66
2022/11/14 06:07:58;0.00;0.00;0.62;0.00;0.00;0.62;9.77;8.60;;;22.40;24.60;;;;;;2267843;61;20358;-66
2022/11/14 06:11:06;0.00;0.00;0.62;0.00;0.00;0.62;12.10;10.47;;;22.40;24.60;;;;;;2268601;61;20778;-70
2022/11/14 06:14:09;0.00;0.00;0.62;0.00;0.00;0.62;12.47;10.37;;;22.30;24.50;;;;;;2268136;61;20386;-66
2022/11/14 06:17:13;0.00;0.00;0.62;0.00;0.00;0.62;11.73;10.20;;;22.30;24.50;;;;;;2268493;61;20363;-65
2022/11/14 06:20:17;0.00;0.00;0.62;0.00;0.00;0.62;12.73;10.43;;;22.30;24.60;;;;;;2268127;61;20459;-64
2022/11/14 06:23:20;0.00;0.00;0.62;0.00;0.00;0.62;12.10;10.07;;;22.30;24.70;;;;;;2267955;61;20382;-68
2022/11/14 06:26:29;0.00;0.00;0.62;0.00;0.00;0.62;13.53;9.73;;;22.30;24.70;;;;;;2268156;61;20401;-67
2022/11/14 06:29:33;0.00;0.00;0.62;0.00;0.00;0.62;9.80;8.80;;;22.30;24.70;;;;;;2268146;61;20363;-65
2022/11/14 06:32:40;0.00;0.00;0.62;0.00;0.00;0.62;13.13;8.40;;;22.30;24.70;;;;;;2268246;61;20379;-65
2022/11/14 06:35:44;0.00;0.00;0.62;0.00;0.00;0.62;11.50;10.10;;;22.30;24.70;;;;;;2268164;61;20496;-65
2022/11/14 06:38:47;0.00;0.00;0.62;0.00;0.00;0.62;11.97;9.23;;;22.30;24.70;;;;;;2267931;61;20408;-64
2022/11/14 06:41:52;0.00;0.00;0.62;0.00;0.00;0.62;11.23;9.60;;;22.30;24.70;;;;;;2268002;61;20758;-64
2022/11/14 06:44:55;0.00;0.00;0.62;0.00;0.00;0.62;13.63;10.90;;;22.30;25.30;;;;;;2267637;61;20882;-62
2022/11/14 06:47:59;0.00;0.00;0.62;0.00;0.00;0.62;12.13;10.40;;;22.30;24.70;;;;;;2268604;61;20437;-64
2022/11/14 06:51:05;0.00;0.00;0.62;0.00;0.00;0.62;10.87;8.80;;;22.30;24.80;;;;;;2267948;61;20427;-64
2022/11/14 06:54:11;0.00;0.00;0.62;0.00;0.00;0.62;11.50;10.30;;;22.30;24.80;;;;;;2268201;61;20422;-66
2022/11/14 06:57:16;0.00;0.00;0.62;0.00;0.00;0.62;10.40;9.30;;;22.30;24.80;;;;;;2268182;61;20776;-67
2022/11/14 07:00:20;0.00;0.00;0.62;0.00;0.00;0.62;10.43;8.90;;;22.30;24.80;;;;;;2268112;61;20406;-66
2022/11/14 07:03:23;0.00;0.00;0.62;0.00;0.00;0.62;10.53;9.43;;;22.30;24.80;;;;;;2267753;61;20375;-65
2022/11/14 07:06:29;0.00;0.00;0.62;0.00;0.00;0.62;10.60;8.63;;;22.30;25.40;;;;;;2267605;61;20440;-65
2022/11/14 07:09:33;0.00;0.00;0.62;0.00;0.00;0.62;9.10;7.67;;;22.30;24.90;;;;;;2268574;61;20363;-65
2022/11/14 07:12:38;0.00;0.00;0.62;0.00;0.00;0.62;11.50;8.70;;;22.40;25.00;;;;;;2267971;61;20440;-66
2022/11/14 07:15:50;0.00;0.00;0.62;0.00;0.00;0.62;9.13;8.23;;;22.40;25.00;;;;;;2267927;61;20469;-68
2022/11/14 07:18:54;0.00;0.00;0.62;0.00;0.00;0.62;12.37;10.00;;;22.40;25.00;;;;;;2268159;61;20355;-68
2022/11/14 07:21:57;0.00;0.00;0.62;0.00;0.00;0.62;9.67;8.70;;;22.40;25.00;;;;;;2267347;61;20382;-68
2022/11/14 07:25:01;0.00;0.00;0.62;0.00;0.00;0.62;10.60;9.50;;;22.40;24.90;;;;;;2268399;61;20375;-68
2022/11/14 07:28:06;0.00;0.00;0.62;0.00;0.00;0.62;12.07;9.70;;;22.50;24.90;;;;;;2268377;61;20363;-65
2022/11/14 07:31:13;0.00;0.00;0.62;0.00;0.00;0.62;11.03;9.83;;;22.40;24.80;;;;;;2268016;61;20912;-65
2022/11/14 07:34:17;0.00;0.00;0.62;0.00;0.00;0.62;10.77;8.87;;;22.40;24.80;;;;;;2268074;61;20491;-66
2022/11/14 07:37:21;0.00;0.00;0.62;0.00;0.00;0.62;12.67;11.07;;;22.40;24.90;;;;;;2267667;61;20355;-68
2022/11/14 07:40:25;0.00;0.00;0.62;0.00;0.00;0.62;11.73;10.53;;;22.40;24.80;;;;;;2268031;61;20355;-65
2022/11/14 07:43:31;0.00;0.00;0.62;0.00;0.00;0.62;11.10;9.90;;;22.40;24.80;;;;;;2267579;61;20433;-65
2022/11/14 07:46:34;0.00;0.00;0.62;0.00;0.00;0.62;12.50;10.70;;;22.40;24.80;;;;;;2268198;61;20465;-65
2022/11/14 07:49:38;0.00;0.00;0.62;0.00;0.00;0.62;13.43;10.17;;;22.40;24.80;;;;;;2267806;61;20437;-65
2022/11/14 07:52:41;0.00;0.00;0.62;0.00;0.00;0.62;12.07;10.70;;;22.40;24.80;;;;;;2267682;61;20854;-66
2022/11/14 07:55:45;0.00;0.00;0.62;0.00;0.00;0.62;11.10;9.80;;;22.40;24.70;;;;;;2268124;61;20351;-66
2022/11/14 07:58:50;0.00;0.00;0.62;0.00;0.00;0.62;10.60;9.50;;;22.40;24.80;;;;;;2267337;61;20822;-64
2022/11/14 08:01:54;0.00;0.00;0.62;0.00;0.00;0.62;12.40;9.57;;;22.40;24.80;;;;;;2268144;61;20903;-69
2022/11/14 08:04:57;0.00;0.00;0.62;0.00;0.00;0.62;10.00;8.50;;;22.40;24.80;;;;;;2267761;61;20374;-66
2022/11/14 08:08:01;0.00;0.00;0.62;0.00;0.00;0.62;10.47;9.37;;;22.40;24.80;;;;;;2267863;61;20405;-65
2022/11/14 08:11:05;0.00;0.00;0.62;0.00;0.00;0.62;11.43;9.17;;;22.40;24.80;;;;;;2267926;61;20879;-64
2022/11/14 08:14:10;0.00;0.00;0.62;0.00;0.00;0.62;10.60;9.50;;;22.50;24.90;;;;;;2267628;61;20382;-64
2022/11/14 08:17:13;0.00;0.00;0.62;0.00;0.00;0.62;10.43;8.90;;;22.50;25.00;;;;;;2267595;61;20339;-64
2022/11/14 08:20:17;0.00;0.00;0.62;0.00;0.00;0.62;8.80;7.90;;;22.50;25.00;;;;;;2267791;61;20354;-70
2022/11/14 08:23:20;0.00;0.00;0.62;0.00;0.00;0.62;9.10;8.20;;;22.50;25.00;;;;;;2268390;61;20889;-67
2022/11/14 08:26:24;0.00;0.00;0.62;0.00;0.00;0.62;9.63;7.70;;;22.50;25.00;;;;;;2267902;61;20459;-68
2022/11/14 08:29:28;0.00;0.00;0.62;0.00;0.00;0.62;8.90;8.00;;;22.60;25.10;;;;;;2267451;61;20355;-66
2022/11/14 08:32:32;0.00;0.00;0.62;0.00;0.00;0.62;8.87;7.87;;;22.60;25.10;;;;;;2267249;61;20362;-63
2022/11/14 08:35:35;0.00;0.00;0.62;0.00;0.00;0.62;8.30;7.27;;;22.60;25.10;;;;;;2267432;61;20470;-69
2022/11/14 08:38:39;0.00;0.00;0.62;0.00;0.00;0.62;9.17;7.77;;;22.60;25.10;;;;;;2267836;61;20381;-68
2022/11/14 08:41:43;0.00;0.00;0.62;0.00;0.00;0.62;8.20;7.27;;;22.60;25.10;;;;;;2267755;61;20389;-66
2022/11/14 08:44:47;0.00;0.00;0.62;0.00;0.00;0.62;8.93;7.97;;;22.60;25.10;;;;;;2267618;61;20467;-65
2022/11/14 08:47:51;0.00;0.00;0.62;0.00;0.00;0.62;8.77;7.83;;;22.70;25.20;;;;;;2268105;61;20355;-66
2022/11/14 08:50:55;0.00;0.00;0.62;0.00;0.00;0.62;8.40;6.83;;;22.70;25.20;;;;;;2267051;61;20367;-67
2022/11/14 08:53:58;0.00;0.00;0.62;0.00;0.00;0.62;7.43;6.53;;;22.70;25.20;;;;;;2267724;61;20440;-65
2022/11/14 08:57:03;0.00;0.00;0.62;0.00;0.00;0.62;8.57;6.97;;;22.70;25.30;;;;;;2267826;61;20363;-63
2022/11/14 09:00:10;0.00;0.00;0.62;0.00;0.00;0.62;8.60;7.80;;;22.70;25.20;;;;;;2267863;61;20358;-62
2022/11/14 09:03:14;0.00;0.00;0.62;0.00;0.00;0.62;7.90;6.77;;;22.70;25.20;;;;;;2267768;61;20907;-68
2022/11/14 09:06:18;0.00;0.00;0.62;0.00;0.00;0.62;7.23;6.57;;;22.70;25.20;;;;;;2267259;61;20412;-67
2022/11/14 09:09:22;0.00;0.00;0.62;0.00;0.00;0.62;8.13;6.90;;;22.80;25.30;;;;;;2266568;61;20413;-65
2022/11/14 09:12:25;0.00;0.00;0.62;0.00;0.00;0.62;8.37;7.57;;;22.80;25.30;;;;;;2266874;61;20402;-66
2022/11/14 09:15:32;0.00;0.00;0.62;0.00;0.00;0.62;7.20;6.07;;;22.80;25.30;;;;;;2268239;61;20792;-65
2022/11/14 09:18:37;0.00;0.00;0.62;0.00;0.00;0.62;7.40;6.17;;;22.80;25.30;;;;;;2267607;61;20413;-65
2022/11/14 09:21:41;0.00;0.00;0.62;0.00;0.00;0.62;7.67;6.97;;;22.80;25.30;;;;;;2266964;61;20501;-64
2022/11/14 09:24:48;0.00;0.00;0.62;0.00;0.00;0.62;7.80;6.87;;;22.80;25.30;;;;;;2267949;61;20416;-63
2022/11/14 09:27:52;0.00;0.00;0.62;0.00;0.00;0.62;7.23;5.93;;;22.80;25.30;;;;;;2266903;61;20763;-65
2022/11/14 09:31:00;0.00;0.00;0.62;0.00;0.00;0.62;7.40;6.60;;;22.90;25.40;;;;;;2267915;61;20450;-65
2022/11/14 09:34:04;0.00;0.00;0.62;0.00;0.00;0.62;6.77;6.07;;;22.90;25.40;;;;;;2267560;61;20895;-63
2022/11/14 09:37:08;0.00;0.00;0.62;0.00;0.00;0.62;6.80;6.10;;;22.90;25.40;;;;;;2267874;61;20564;-62
2022/11/14 09:40:13;0.00;0.00;0.62;0.00;0.00;0.62;7.13;6.07;;;22.90;25.40;;;;;;2267764;61;20394;-66
2022/11/14 09:43:38;0.00;0.00;0.62;0.00;0.00;0.62;7.20;6.40;;;22.90;25.30;;;;;;2267088;61;20514;-69
2022/11/14 09:46:46;0.00;0.00;0.62;0.00;0.00;0.62;6.80;6.10;;;23.00;25.40;;;;;;2267810;61;20598;-66
2022/11/14 09:49:54;0.00;0.00;0.62;0.00;0.00;0.62;7.60;5.77;;;23.00;25.40;;;;;;2266753;61;20359;-67
2022/11/14 09:53:05;0.00;0.00;0.62;0.00;0.00;0.62;6.30;5.67;;;23.00;25.40;;;;;;2267932;61;20383;-65
2022/11/14 09:56:14;0.00;0.00;0.62;0.00;0.00;0.62;7.53;6.50;;;23.00;25.30;;;;;;2267675;61;20761;-64
2022/11/14 09:59:17;0.00;0.00;0.62;0.00;0.00;0.62;7.00;5.60;;;23.00;25.30;;;;;;2267870;61;20363;-66
2022/11/14 10:02:37;0.00;0.00;0.62;0.00;0.00;0.62;7.03;6.33;;;23.00;25.30;;;;;;2267894;61;20382;-65
2022/11/14 10:06:12;0.00;0.00;0.62;0.00;0.00;0.62;7.10;6.10;;;23.00;25.30;;;;;;2266814;61;20783;-65
2022/11/14 10:09:42;0.00;0.00;0.62;0.00;0.00;0.62;7.33;6.07;;;23.00;25.80;;;;;;2267787;61;20447;-67
2022/11/14 10:12:59;0.00;0.00;0.62;0.00;0.00;0.62;7.23;6.30;;;23.10;25.40;;;;;;2267370;61;20802;-62
2022/11/14 10:16:10;0.00;0.00;0.62;0.00;0.00;0.62;6.80;6.10;;;23.10;25.30;;;;;;2267942;61;20448;-63
2022/11/14 10:19:26;0.00;0.00;0.62;0.00;0.00;0.62;7.57;6.77;;;23.10;25.30;;;;;;2266922;61;20367;-65
2022/11/14 10:23:01;0.00;0.00;0.62;0.00;0.00;0.62;6.83;5.43;;;23.10;25.30;;;;;;2267614;61;20967;-61
2022/11/14 10:26:18;0.00;0.00;0.62;0.00;0.00;0.62;6.63;5.77;;;23.10;25.30;;;;;;2267061;61;20491;-67
2022/11/14 10:30:06;0.00;0.00;0.62;0.00;0.00;0.62;6.10;5.50;;;23.20;25.40;;;;;;2267745;61;20363;-62
2022/11/14 10:33:27;0.00;0.00;0.62;0.00;0.00;0.62;6.17;5.30;;;23.10;25.30;;;;;;2267138;61;20398;-65
2022/11/14 10:36:52;0.00;0.00;0.62;0.00;0.00;0.62;7.70;6.10;;;23.20;25.40;;;;;;2267194;61;20358;-64
2022/11/14 10:40:12;0.00;0.00;0.62;0.00;0.00;0.62;6.77;5.23;;;23.20;25.40;;;;;;2267471;61;20448;-63
2022/11/14 10:43:27;0.00;0.00;0.62;0.00;0.00;0.62;6.53;5.80;;;23.20;25.40;;;;;;2267526;61;20895;-66
2022/11/14 10:46:36;0.00;0.00;0.62;0.00;0.00;0.62;8.43;6.30;;;23.20;25.40;;;;;;2268346;61;20437;-64
2022/11/14 10:49:41;0.00;0.00;0.62;0.00;0.00;0.62;7.40;6.20;;;23.20;25.40;;;;;;2267686;61;20422;-64
2022/11/14 10:52:51;0.00;0.00;0.62;0.00;0.00;0.62;8.13;6.80;;;23.30;25.40;;;;;;2268500;61;20529;-65
2022/11/14 10:55:55;0.00;0.00;0.62;0.00;0.00;0.62;7.10;6.20;;;23.20;25.40;;;;;;2267833;61;20364;-65
2022/11/14 10:59:02;0.00;0.00;0.62;0.00;0.00;0.62;6.57;5.97;;;23.30;25.40;;;;;;2268411;61;20886;-67
2022/11/14 11:02:06;0.00;0.00;0.62;0.00;0.00;0.62;5.70;5.10;;;23.30;25.40;;;;;;2268050;61;20448;-66
2022/11/14 11:05:15;0.00;0.00;0.62;0.00;0.00;0.62;6.33;5.20;;;23.30;25.40;;;;;;2267591;61;20367;-67
2022/11/14 11:11:55;0.00;0.00;0.62;0.00;0.00;0.62;7.67;5.80;;;23.30;25.40;;;;;;2267635;61;20394;-69
2022/11/14 11:15:14;0.00;0.00;0.62;0.00;0.00;0.62;6.53;5.83;;;23.30;25.40;;;;;;2268626;61;20363;-69
2022/11/14 11:18:26;0.00;0.00;0.62;0.00;0.00;0.62;7.27;6.13;;;23.40;25.50;;;;;;2267652;61;20355;-69
2022/11/14 11:21:46;0.00;0.00;0.62;0.00;0.00;0.62;6.07;5.40;;;23.40;25.50;;;;;;2268447;61;20371;-71
2022/11/14 11:24:50;0.00;0.00;0.62;0.00;0.00;0.62;5.70;5.13;;;23.40;25.50;;;;;;2268063;61;20428;-70
2022/11/14 11:28:09;0.00;0.00;0.62;0.00;0.00;0.62;5.80;5.03;;;23.40;25.50;;;;;;2268399;61;20366;-69
2022/11/14 11:31:13;0.00;0.00;0.62;0.00;0.00;0.62;7.17;6.00;;;23.40;25.60;;;;;;2268306;61;20364;-70
2022/11/14 11:34:23;0.00;0.00;0.62;0.00;0.00;0.62;7.00;6.30;;;23.50;25.60;;;;;;2267793;61;20464;-72
2022/11/14 11:37:31;0.00;0.00;0.62;0.00;0.00;0.62;6.30;5.50;;;23.50;25.60;;;;;;2268497;61;20359;-71
2022/11/14 11:40:39;0.00;0.00;0.62;0.00;0.00;0.62;6.47;5.77;;;23.50;25.60;;;;;;2267391;61;20883;-67
2022/11/14 11:43:50;0.00;0.00;0.62;0.00;0.00;0.62;5.70;5.10;;;23.50;25.60;;;;;;2268554;61;20387;-65
2022/11/14 11:46:59;0.00;0.00;0.62;0.00;0.00;0.62;7.23;6.37;;;23.60;25.60;;;;;;2268081;61;20983;-63
2022/11/14 11:50:04;0.00;0.00;0.62;0.00;0.00;0.62;5.60;4.63;;;23.60;25.60;;;;;;2268017;61;20443;-65
2022/11/14 11:53:17;0.00;0.00;0.62;0.00;0.00;0.62;5.57;5.07;;;23.60;26.20;;;;;;2268234;61;20499;-68
2022/11/14 11:56:29;0.00;0.00;0.62;0.00;0.00;0.62;6.60;5.47;;;23.60;25.70;;;;;;2267586;61;20589;-68
2022/11/14 11:59:38;0.00;0.00;0.62;0.00;0.00;0.62;5.90;5.30;;;23.60;25.70;;;;;;2268204;61;20405;-67
2022/11/14 12:02:45;0.00;0.00;0.62;0.00;0.00;0.62;8.67;6.67;;;23.70;25.70;;;;;;2267358;61;20412;-65
2022/11/14 12:06:02;0.00;0.00;0.62;0.00;0.00;0.62;7.30;6.47;;;23.70;25.70;;;;;;2268295;61;20390;-68
2022/11/14 12:09:16;0.00;0.00;0.62;0.00;0.00;0.62;6.27;5.50;;;23.70;25.70;;;;;;2267875;61;20360;-66
2022/11/14 12:12:38;0.00;0.00;0.62;0.00;0.00;0.62;6.93;6.00;;;23.80;25.70;;;;;;2267776;61;20816;-65